createdAt,value
2018-07-24T00:00:03.417Z,126.1
2018-07-24T00:01:04.627Z,126.1
2018-07-24T00:02:06.154Z,126.6
2018-07-24T00:03:07.515Z,125.6
2018-07-24T00:04:09.052Z,126.6
2018-07-24T00:05:10.432Z,125.6
2018-07-24T00:06:11.819Z,126.1
2018-07-24T00:07:13.193Z,126.6
2018-07-24T00:08:14.568Z,125.6
2018-07-24T00:09:15.937Z,126.1
2018-07-24T00:10:17.142Z,126.1
2018-07-24T00:11:18.365Z,125.6
2018-07-24T00:12:19.914Z,126.1
2018-07-24T00:13:21.472Z,126.6
2018-07-24T00:14:23.022Z,126.6
2018-07-24T00:15:24.383Z,126.1
2018-07-24T00:16:25.931Z,126.6
2018-07-24T00:17:27.493Z,127.1
2018-07-24T00:18:28.867Z,125.6
2018-07-24T00:19:30.393Z,126.6
2018-07-24T00:20:31.776Z,126.1
2018-07-24T00:21:33.158Z,126.1
2018-07-24T00:22:34.365Z,125.6
2018-07-24T00:23:36.040Z,125.6
2018-07-24T00:24:37.564Z,127.1
2018-07-24T00:25:38.949Z,126.6
2018-07-24T00:26:40.314Z,126.6
2018-07-24T00:27:41.732Z,127.1
2018-07-24T00:28:42.925Z,126.6
2018-07-24T00:29:44.452Z,127.1
2018-07-24T00:30:45.987Z,126.6
2018-07-24T00:31:47.365Z,127.1
2018-07-24T00:32:48.742Z,126.1
2018-07-24T00:33:50.296Z,126.6
2018-07-24T00:34:51.674Z,126.1
2018-07-24T00:35:52.866Z,127.1
2018-07-24T00:36:54.074Z,126.1
2018-07-24T00:37:55.445Z,127.1
2018-07-24T00:38:56.808Z,126.6
2018-07-24T00:39:58.381Z,126.1
2018-07-24T00:40:59.965Z,127.1
2018-07-24T00:42:01.495Z,126.6
2018-07-24T00:43:02.709Z,125.6
2018-07-24T00:44:04.086Z,126.1
2018-07-24T00:45:05.630Z,126.6
2018-07-24T00:46:06.849Z,126.1
2018-07-24T00:47:08.204Z,126.1
2018-07-24T00:48:09.746Z,126.1
2018-07-24T00:49:11.289Z,127.1
2018-07-24T00:50:12.666Z,126.6
2018-07-24T00:51:14.207Z,127.1
2018-07-24T00:52:15.744Z,126.1
2018-07-24T00:53:17.282Z,126.6
2018-07-24T00:54:19.201Z,126.1
2018-07-24T00:55:20.603Z,126.6
2018-07-24T00:56:22.142Z,126.6
2018-07-24T00:57:23.675Z,125.6
2018-07-24T00:58:25.212Z,126.1
2018-07-24T00:59:26.413Z,126.6
2018-07-24T01:00:27.633Z,126.1
2018-07-24T01:01:28.848Z,126.1
2018-07-24T01:02:30.040Z,126.6
2018-07-24T01:03:31.597Z,127.1
2018-07-24T01:04:32.964Z,126.6
2018-07-24T01:05:34.518Z,127.1
2018-07-24T01:06:36.045Z,125.6
2018-07-24T01:07:37.236Z,126.1
2018-07-24T01:08:39.188Z,127.1
2018-07-24T01:09:40.317Z,125.6
2018-07-24T01:10:41.408Z,126.1
2018-07-24T01:11:42.626Z,126.6
2018-07-24T01:12:44.046Z,126.1
2018-07-24T01:13:45.416Z,126.1
2018-07-24T01:14:46.763Z,126.6
2018-07-24T01:15:48.134Z,126.6
2018-07-24T01:16:49.684Z,125.6
2018-07-24T01:17:51.211Z,126.6
2018-07-24T01:18:52.554Z,126.1
2018-07-24T01:19:54.077Z,126.1
2018-07-24T01:20:55.635Z,126.1
2018-07-24T01:21:56.993Z,126.1
2018-07-24T01:22:58.357Z,126.1
2018-07-24T01:23:59.733Z,126.6
2018-07-24T01:25:01.271Z,126.6
2018-07-24T01:26:02.817Z,126.6
2018-07-24T01:27:04.182Z,126.1
2018-07-24T01:28:05.724Z,126.1
2018-07-24T01:29:07.270Z,126.6
2018-07-24T01:30:08.791Z,126.1
2018-07-24T01:31:10.182Z,126.6
2018-07-24T01:32:11.397Z,127.1
2018-07-24T01:33:12.783Z,126.6
2018-07-24T01:34:13.985Z,127.1
2018-07-24T01:35:15.536Z,127.1
2018-07-24T01:36:16.935Z,127.1
2018-07-24T01:37:18.336Z,126.6
2018-07-24T01:38:19.890Z,126.1
2018-07-24T01:39:21.257Z,127.6
2018-07-24T01:40:22.466Z,126.1
2018-07-24T01:41:24.001Z,126.1
2018-07-24T01:42:25.216Z,125.6
2018-07-24T01:43:26.601Z,126.6
2018-07-24T01:44:27.968Z,125.6
2018-07-24T01:45:29.504Z,127.6
2018-07-24T01:46:31.035Z,127.6
2018-07-24T01:47:32.575Z,127.6
2018-07-24T01:48:33.789Z,127.6
2018-07-24T01:49:35.335Z,128.1
2018-07-24T01:50:36.714Z,128.1
2018-07-24T01:51:38.078Z,127.1
2018-07-24T01:52:39.613Z,127.6
2018-07-24T01:53:41.155Z,127.1
2018-07-24T01:54:42.696Z,127.1
2018-07-24T01:55:44.255Z,127.6
2018-07-24T01:56:45.468Z,127.6
2018-07-24T01:57:46.684Z,127.1
2018-07-24T01:58:48.065Z,127.6
2018-07-24T01:59:49.442Z,127.6
2018-07-24T02:00:50.992Z,127.1
2018-07-24T02:01:52.541Z,127.1
2018-07-24T02:02:53.596Z,127.6
2018-07-24T02:03:55.131Z,127.1
2018-07-24T02:04:56.686Z,127.1
2018-07-24T02:05:58.249Z,127.1
2018-07-24T02:06:59.851Z,128.1
2018-07-24T02:08:01.076Z,128.1
2018-07-24T02:09:02.634Z,127.6
2018-07-24T02:10:04.032Z,127.6
2018-07-24T02:11:05.415Z,127.1
2018-07-24T02:12:06.809Z,128.1
2018-07-24T02:13:08.208Z,128.1
2018-07-24T02:14:09.573Z,128.1
2018-07-24T02:15:11.114Z,127.6
2018-07-24T02:16:12.512Z,127.6
2018-07-24T02:17:13.735Z,128.1
2018-07-24T02:18:15.290Z,128.1
2018-07-24T02:19:16.679Z,127.6
2018-07-24T02:20:18.245Z,128.1
2018-07-24T02:21:19.307Z,127.1
2018-07-24T02:22:20.845Z,127.6
2018-07-24T02:23:22.409Z,127.1
2018-07-24T02:24:23.613Z,127.6
2018-07-24T02:25:25.160Z,127.6
2018-07-24T02:26:26.387Z,128.1
2018-07-24T02:27:27.627Z,128.1
2018-07-24T02:28:29.015Z,128.1
2018-07-24T02:29:30.402Z,128.1
2018-07-24T02:30:31.967Z,127.1
2018-07-24T02:31:33.175Z,128.5
2018-07-24T02:32:34.075Z,127.1
2018-07-24T02:33:35.647Z,127.6
2018-07-24T02:34:36.708Z,128.1
2018-07-24T02:35:37.924Z,127.1
2018-07-24T02:36:39.296Z,127.1
2018-07-24T02:37:40.689Z,127.1
2018-07-24T02:38:42.238Z,127.6
2018-07-24T02:39:43.641Z,128.1
2018-07-24T02:40:45.016Z,127.1
2018-07-24T02:41:46.239Z,127.1
2018-07-24T02:42:47.486Z,128.1
2018-07-24T02:43:48.867Z,127.1
2018-07-24T02:44:50.251Z,127.1
2018-07-24T02:45:51.635Z,127.6
2018-07-24T02:46:53.160Z,127.1
2018-07-24T02:47:54.536Z,127.1
2018-07-24T02:48:56.097Z,127.1
2018-07-24T02:49:57.646Z,126.6
2018-07-24T02:50:59.035Z,126.6
2018-07-24T02:52:00.598Z,128.1
2018-07-24T02:53:01.486Z,126.6
2018-07-24T02:54:02.882Z,127.6
2018-07-24T02:55:04.474Z,126.6
2018-07-24T02:56:06.024Z,126.6
2018-07-24T02:57:07.576Z,127.6
2018-07-24T02:58:08.969Z,127.6
2018-07-24T02:59:10.514Z,127.1
2018-07-24T03:00:11.731Z,127.1
2018-07-24T03:01:13.373Z,127.6
2018-07-24T03:02:14.749Z,126.6
2018-07-24T03:03:16.149Z,127.1
2018-07-24T03:04:17.554Z,126.6
2018-07-24T03:05:19.100Z,127.1
2018-07-24T03:06:20.496Z,127.6
2018-07-24T03:07:21.877Z,127.6
2018-07-24T03:08:23.075Z,127.6
2018-07-24T03:09:24.130Z,127.6
2018-07-24T03:10:25.359Z,127.6
2018-07-24T03:11:26.901Z,127.1
2018-07-24T03:12:28.290Z,127.6
2018-07-24T03:13:29.337Z,127.6
2018-07-24T03:14:30.785Z,127.1
2018-07-24T03:15:32.354Z,127.6
2018-07-24T03:16:33.906Z,127.6
2018-07-24T03:17:35.476Z,127.1
2018-07-24T03:18:36.870Z,127.1
2018-07-24T03:19:38.457Z,126.6
2018-07-24T03:20:40.027Z,127.6
2018-07-24T03:21:41.437Z,127.1
2018-07-24T03:22:42.848Z,126.1
2018-07-24T03:23:44.261Z,127.1
2018-07-24T03:24:45.877Z,126.6
2018-07-24T03:25:47.486Z,127.6
2018-07-24T03:26:48.879Z,126.6
2018-07-24T03:27:50.445Z,127.1
2018-07-24T03:28:51.821Z,126.6
2018-07-24T03:29:53.358Z,126.6
2018-07-24T03:30:54.741Z,127.1
2018-07-24T03:31:56.133Z,126.6
2018-07-24T03:32:57.662Z,126.6
2018-07-24T03:33:58.718Z,126.6
2018-07-24T03:35:00.259Z,126.1
2018-07-24T03:36:01.648Z,126.6
2018-07-24T03:37:03.202Z,126.6
2018-07-24T03:38:04.590Z,126.6
2018-07-24T03:39:06.127Z,126.6
2018-07-24T03:40:07.508Z,127.1
2018-07-24T03:41:08.713Z,126.6
2018-07-24T03:42:10.126Z,126.6
2018-07-24T03:43:11.675Z,127.1
2018-07-24T03:44:13.049Z,127.1
2018-07-24T03:45:14.443Z,126.6
2018-07-24T03:46:16.013Z,126.6
2018-07-24T03:47:17.577Z,127.1
2018-07-24T03:48:18.975Z,126.6
2018-07-24T03:49:20.033Z,126.6
2018-07-24T03:50:21.404Z,126.6
2018-07-24T03:51:22.798Z,126.6
2018-07-24T03:52:24.368Z,126.6
2018-07-24T03:53:25.908Z,126.1
2018-07-24T03:54:27.287Z,126.1
2018-07-24T03:55:28.675Z,125.6
2018-07-24T03:56:30.045Z,125.6
2018-07-24T03:57:31.103Z,126.1
2018-07-24T03:58:32.496Z,125.6
2018-07-24T03:59:33.707Z,125.6
2018-07-24T04:00:34.929Z,125.6
2018-07-24T04:01:36.155Z,125.6
2018-07-24T04:02:37.714Z,125.1
2018-07-24T04:03:39.093Z,125.6
2018-07-24T04:04:40.649Z,125.6
2018-07-24T04:05:42.026Z,125.6
2018-07-24T04:06:43.269Z,126.1
2018-07-24T04:07:44.488Z,125.6
2018-07-24T04:08:46.025Z,125.1
2018-07-24T04:09:47.239Z,125.6
2018-07-24T04:10:48.450Z,125.6
2018-07-24T04:11:49.819Z,125.1
2018-07-24T04:12:51.377Z,125.1
2018-07-24T04:13:52.926Z,125.6
2018-07-24T04:14:54.309Z,125.6
2018-07-24T04:15:55.702Z,125.6
2018-07-24T04:16:57.087Z,125.6
2018-07-24T04:17:58.698Z,125.6
2018-07-24T04:18:59.908Z,125.6
2018-07-24T04:20:01.472Z,125.6
2018-07-24T04:21:03.060Z,125.1
2018-07-24T04:22:04.605Z,125.6
2018-07-24T04:23:05.990Z,125.1
2018-07-24T04:24:07.397Z,125.6
2018-07-24T04:25:08.796Z,125.6
2018-07-24T04:26:10.190Z,125.1
2018-07-24T04:27:11.595Z,125.1
2018-07-24T04:28:12.816Z,125.1
2018-07-24T04:29:14.369Z,125.1
2018-07-24T04:30:15.753Z,125.6
2018-07-24T04:31:17.295Z,125.1
2018-07-24T04:32:18.696Z,125.1
2018-07-24T04:33:20.068Z,125.6
2018-07-24T04:34:21.443Z,125.1
2018-07-24T04:35:22.991Z,125.1
2018-07-24T04:36:24.529Z,126.1
2018-07-24T04:37:25.915Z,125.6
2018-07-24T04:38:27.477Z,125.6
2018-07-24T04:39:28.699Z,125.6
2018-07-24T04:40:30.108Z,125.6
2018-07-24T04:41:31.651Z,125.1
2018-07-24T04:42:33.039Z,125.1
2018-07-24T04:43:34.593Z,126.1
2018-07-24T04:44:36.152Z,125.6
2018-07-24T04:45:37.671Z,125.1
2018-07-24T04:46:39.059Z,125.1
2018-07-24T04:47:40.446Z,125.6
2018-07-24T04:48:42.009Z,125.1
2018-07-24T04:49:43.567Z,124.6
2018-07-24T04:50:45.115Z,125.1
2018-07-24T04:51:46.337Z,125.6
2018-07-24T04:52:47.883Z,125.1
2018-07-24T04:53:49.445Z,125.1
2018-07-24T04:54:50.805Z,125.6
2018-07-24T04:55:52.035Z,125.1
2018-07-24T04:56:53.467Z,125.1
2018-07-24T04:57:54.667Z,125.1
2018-07-24T04:58:56.221Z,125.1
2018-07-24T04:59:57.437Z,125.1
2018-07-24T05:00:58.644Z,124.6
2018-07-24T05:02:00.199Z,124.6
2018-07-24T05:03:01.576Z,125.6
2018-07-24T05:04:02.953Z,125.1
2018-07-24T05:05:04.339Z,125.1
2018-07-24T05:06:05.875Z,125.1
2018-07-24T05:07:07.285Z,124.6
2018-07-24T05:08:08.663Z,124.6
2018-07-24T05:09:10.046Z,125.1
2018-07-24T05:10:11.751Z,125.1
2018-07-24T05:11:13.198Z,125.1
2018-07-24T05:12:14.246Z,125.1
2018-07-24T05:13:15.639Z,125.1
2018-07-24T05:14:17.017Z,125.1
2018-07-24T05:15:18.228Z,124.6
2018-07-24T05:16:19.759Z,125.1
2018-07-24T05:17:21.136Z,125.1
2018-07-24T05:18:22.504Z,125.6
2018-07-24T05:19:23.556Z,125.1
2018-07-24T05:20:25.108Z,125.6
2018-07-24T05:21:26.486Z,125.1
2018-07-24T05:22:27.905Z,124.6
2018-07-24T05:23:29.672Z,124.1
2018-07-24T05:24:31.250Z,125.1
2018-07-24T05:25:32.788Z,124.6
2018-07-24T05:26:34.345Z,125.1
2018-07-24T05:27:35.739Z,124.6
2018-07-24T05:28:37.307Z,125.1
2018-07-24T05:29:38.690Z,124.6
2018-07-24T05:30:40.239Z,124.1
2018-07-24T05:31:41.788Z,124.1
2018-07-24T05:32:43.349Z,125.1
2018-07-24T05:33:44.895Z,124.6
2018-07-24T05:34:46.446Z,125.1
2018-07-24T05:35:47.822Z,125.1
2018-07-24T05:36:49.222Z,124.6
2018-07-24T05:37:50.784Z,124.6
2018-07-24T05:38:52.182Z,124.6
2018-07-24T05:39:53.903Z,125.6
2018-07-24T05:40:55.112Z,124.6
2018-07-24T05:41:56.484Z,124.6
2018-07-24T05:42:57.882Z,124.6
2018-07-24T05:43:59.470Z,125.6
2018-07-24T05:45:01.010Z,124.6
2018-07-24T05:46:02.575Z,124.6
2018-07-24T05:47:03.973Z,124.6
2018-07-24T05:48:05.522Z,124.6
2018-07-24T05:49:06.908Z,124.1
2018-07-24T05:50:08.129Z,124.6
2018-07-24T05:51:09.675Z,124.6
2018-07-24T05:52:11.226Z,125.1
2018-07-24T05:53:12.794Z,125.1
2018-07-24T05:54:14.335Z,125.1
2018-07-24T05:55:15.889Z,125.1
2018-07-24T05:56:17.453Z,125.1
2018-07-24T05:57:18.864Z,124.1
2018-07-24T05:58:20.429Z,124.6
2018-07-24T05:59:21.969Z,124.6
2018-07-24T06:00:23.521Z,125.1
2018-07-24T06:01:25.072Z,124.6
2018-07-24T06:02:26.466Z,125.1
2018-07-24T06:03:28.016Z,124.6
2018-07-24T06:04:29.395Z,124.6
2018-07-24T06:05:30.795Z,124.6
2018-07-24T06:06:32.370Z,125.1
2018-07-24T06:07:33.925Z,124.1
2018-07-24T06:08:35.462Z,124.1
2018-07-24T06:09:36.847Z,124.6
2018-07-24T06:10:38.244Z,124.1
2018-07-24T06:11:39.637Z,124.6
2018-07-24T06:12:40.687Z,124.1
2018-07-24T06:13:42.224Z,124.1
2018-07-24T06:14:43.603Z,124.1
2018-07-24T06:15:45.166Z,125.1
2018-07-24T06:16:46.955Z,124.1
2018-07-24T06:17:48.272Z,124.1
2018-07-24T06:18:49.832Z,125.1
2018-07-24T06:19:51.405Z,124.1
2018-07-24T06:20:52.957Z,124.6
2018-07-24T06:21:54.999Z,125.1
2018-07-24T06:22:56.695Z,124.6
2018-07-24T06:23:58.256Z,125.1
2018-07-24T06:24:59.813Z,124.6
2018-07-24T06:26:01.410Z,124.6
2018-07-24T06:27:02.799Z,124.6
2018-07-24T06:28:04.364Z,124.6
2018-07-24T06:29:05.746Z,124.6
2018-07-24T06:30:07.121Z,125.1
2018-07-24T06:31:08.498Z,125.1
2018-07-24T06:32:10.048Z,125.6
2018-07-24T06:33:11.423Z,124.6
2018-07-24T06:34:12.962Z,123.7
2018-07-24T06:35:14.518Z,123.7
2018-07-24T06:36:15.901Z,124.1
2018-07-24T06:37:17.296Z,124.6
2018-07-24T06:38:18.697Z,124.1
2018-07-24T06:39:20.278Z,124.1
2018-07-24T06:40:21.500Z,124.1
2018-07-24T06:41:22.886Z,125.1
2018-07-24T06:42:24.436Z,124.6
2018-07-24T06:43:25.676Z,124.1
2018-07-24T06:44:27.322Z,125.1
2018-07-24T06:45:28.946Z,124.6
2018-07-24T06:46:30.482Z,125.1
2018-07-24T06:47:31.866Z,124.1
2018-07-24T06:48:33.418Z,124.1
2018-07-24T06:49:34.979Z,125.1
2018-07-24T06:50:36.349Z,124.1
2018-07-24T06:51:38.624Z,124.1
2018-07-24T06:52:40.430Z,124.6
2018-07-24T06:53:41.815Z,124.6
2018-07-24T06:54:43.375Z,125.1
2018-07-24T06:55:44.596Z,124.6
2018-07-24T06:56:46.168Z,124.6
2018-07-24T06:57:47.547Z,124.1
2018-07-24T06:58:48.932Z,124.1
2018-07-24T06:59:50.479Z,125.1
2018-07-24T07:00:52.003Z,124.6
2018-07-24T07:01:53.385Z,124.1
2018-07-24T07:02:54.758Z,124.1
2018-07-24T07:03:56.312Z,124.1
2018-07-24T07:04:58.139Z,124.1
2018-07-24T07:05:59.605Z,124.1
2018-07-24T07:07:00.819Z,123.7
2018-07-24T07:08:02.208Z,123.7
2018-07-24T07:09:03.765Z,123.7
2018-07-24T07:10:05.179Z,124.6
2018-07-24T07:11:06.610Z,124.1
2018-07-24T07:12:07.830Z,124.6
2018-07-24T07:13:09.848Z,123.7
2018-07-24T07:14:11.302Z,123.7
2018-07-24T07:15:12.686Z,124.6
2018-07-24T07:16:14.260Z,124.1
2018-07-24T07:17:15.553Z,124.1
2018-07-24T07:18:16.759Z,124.6
2018-07-24T07:19:18.319Z,124.1
2018-07-24T07:20:19.695Z,124.6
2018-07-24T07:21:21.234Z,125.1
2018-07-24T07:22:22.787Z,124.6
2018-07-24T07:23:24.629Z,124.1
2018-07-24T07:24:26.355Z,124.1
2018-07-24T07:25:27.920Z,125.1
2018-07-24T07:26:29.292Z,125.1
2018-07-24T07:27:30.699Z,124.1
2018-07-24T07:28:32.250Z,124.6
2018-07-24T07:29:33.641Z,125.1
2018-07-24T07:30:35.019Z,125.1
2018-07-24T07:31:36.545Z,124.6
2018-07-24T07:32:38.500Z,125.1
2018-07-24T07:33:40.243Z,124.6
2018-07-24T07:34:41.794Z,124.6
2018-07-24T07:35:43.016Z,123.7
2018-07-24T07:36:44.406Z,124.6
2018-07-24T07:37:45.807Z,125.1
2018-07-24T07:38:47.199Z,123.7
2018-07-24T07:39:48.613Z,123.7
2018-07-24T07:40:50.026Z,124.6
2018-07-24T07:41:51.404Z,124.1
2018-07-24T07:42:52.456Z,125.1
2018-07-24T07:43:54.251Z,124.1
2018-07-24T07:44:55.482Z,124.1
2018-07-24T07:45:57.048Z,124.6
2018-07-24T07:46:58.449Z,123.7
2018-07-24T07:48:00.033Z,124.1
2018-07-24T07:49:01.424Z,124.1
2018-07-24T07:50:02.656Z,124.1
2018-07-24T07:51:04.208Z,124.1
2018-07-24T07:52:05.601Z,124.1
2018-07-24T07:53:06.813Z,124.6
2018-07-24T07:54:08.369Z,124.6
2018-07-24T07:55:09.773Z,124.1
2018-07-24T07:56:11.171Z,124.6
2018-07-24T07:57:12.550Z,124.1
2018-07-24T07:58:13.935Z,124.1
2018-07-24T07:59:15.483Z,124.1
2018-07-24T08:00:16.724Z,125.1
2018-07-24T08:01:17.924Z,123.7
2018-07-24T08:02:19.469Z,124.6
2018-07-24T08:03:21.051Z,124.6
2018-07-24T08:04:22.991Z,124.6
2018-07-24T08:05:24.757Z,124.1
2018-07-24T08:06:26.311Z,124.1
2018-07-24T08:07:27.873Z,124.6
2018-07-24T08:08:29.415Z,125.1
2018-07-24T08:09:30.638Z,124.6
2018-07-24T08:10:32.204Z,124.6
2018-07-24T08:11:33.599Z,124.1
2018-07-24T08:12:35.010Z,124.1
2018-07-24T08:13:36.397Z,124.6
2018-07-24T08:14:37.956Z,124.6
2018-07-24T08:15:39.512Z,123.7
2018-07-24T08:16:40.910Z,124.1
2018-07-24T08:17:42.120Z,124.1
2018-07-24T08:18:43.349Z,124.1
2018-07-24T08:19:44.892Z,124.1
2018-07-24T08:20:46.287Z,124.1
2018-07-24T08:21:47.842Z,124.6
2018-07-24T08:22:49.375Z,123.7
2018-07-24T08:23:50.774Z,124.6
2018-07-24T08:24:51.825Z,124.6
2018-07-24T08:25:53.386Z,124.1
2018-07-24T08:26:54.586Z,124.6
2018-07-24T08:27:56.334Z,123.7
2018-07-24T08:28:58.094Z,124.1
2018-07-24T08:29:59.305Z,124.1
2018-07-24T08:31:00.848Z,123.7
2018-07-24T08:32:02.399Z,124.6
2018-07-24T08:33:03.776Z,124.6
2018-07-24T08:34:05.166Z,123.7
2018-07-24T08:35:06.223Z,124.1
2018-07-24T08:36:07.439Z,125.1
2018-07-24T08:37:09.009Z,125.1
2018-07-24T08:38:10.215Z,124.6
2018-07-24T08:39:11.793Z,125.1
2018-07-24T08:40:13.175Z,124.1
2018-07-24T08:41:14.531Z,124.6
2018-07-24T08:42:15.746Z,124.6
2018-07-24T08:43:17.141Z,125.1
2018-07-24T08:44:18.685Z,125.1
2018-07-24T08:45:20.255Z,125.1
2018-07-24T08:46:21.665Z,125.1
2018-07-24T08:47:23.056Z,125.1
2018-07-24T08:48:24.282Z,125.1
2018-07-24T08:49:25.853Z,125.1
2018-07-24T08:50:27.401Z,124.6
2018-07-24T08:51:28.805Z,124.6
2018-07-24T08:52:31.151Z,124.6
2018-07-24T08:53:34.575Z,124.6
2018-07-24T08:54:38.337Z,125.1
2018-07-24T08:55:42.856Z,125.1
2018-07-24T08:56:45.314Z,125.1
2018-07-24T08:57:47.202Z,124.1
2018-07-24T08:58:48.937Z,124.6
2018-07-24T08:59:50.157Z,125.1
2018-07-24T09:00:51.754Z,124.6
2018-07-24T09:01:53.301Z,124.6
2018-07-24T09:02:54.739Z,125.1
2018-07-24T09:03:56.307Z,124.6
2018-07-24T09:04:57.536Z,125.6
2018-07-24T09:05:58.933Z,124.6
2018-07-24T09:07:00.180Z,124.6
2018-07-24T09:08:01.738Z,125.1
2018-07-24T09:09:03.152Z,125.1
2018-07-24T09:10:04.918Z,124.6
2018-07-24T09:11:06.380Z,125.1
2018-07-24T09:12:07.920Z,124.6
2018-07-24T09:13:09.305Z,125.1
2018-07-24T09:14:10.871Z,125.1
2018-07-24T09:15:12.431Z,124.6
2018-07-24T09:16:13.972Z,125.6
2018-07-24T09:17:15.352Z,125.1
2018-07-24T09:18:16.732Z,124.6
2018-07-24T09:19:17.788Z,124.6
2018-07-24T09:20:19.355Z,125.1
2018-07-24T09:21:20.735Z,124.6
2018-07-24T09:22:22.129Z,124.6
2018-07-24T09:23:23.691Z,124.6
2018-07-24T09:24:25.249Z,125.1
2018-07-24T09:25:26.638Z,125.1
2018-07-24T09:26:28.015Z,124.6
2018-07-24T09:27:29.392Z,124.6
2018-07-24T09:28:30.954Z,125.6
2018-07-24T09:29:32.335Z,124.6
2018-07-24T09:30:33.836Z,125.1
2018-07-24T09:31:35.498Z,124.6
2018-07-24T09:32:36.909Z,124.6
2018-07-24T09:33:38.465Z,124.6
2018-07-24T09:34:40.012Z,125.1
2018-07-24T09:35:41.443Z,125.1
2018-07-24T09:36:42.510Z,124.6
2018-07-24T09:37:44.051Z,124.6
2018-07-24T09:38:45.423Z,125.1
2018-07-24T09:39:46.815Z,125.1
2018-07-24T09:40:48.357Z,124.6
2018-07-24T09:41:49.583Z,125.1
2018-07-24T09:42:50.804Z,124.1
2018-07-24T09:43:52.185Z,125.1
2018-07-24T09:44:53.756Z,124.6
2018-07-24T09:45:55.569Z,124.1
2018-07-24T09:46:57.270Z,125.1
2018-07-24T09:47:58.656Z,124.6
2018-07-24T09:48:59.709Z,124.6
2018-07-24T09:50:01.097Z,124.1
2018-07-24T09:51:02.489Z,125.1
2018-07-24T09:52:04.078Z,124.6
2018-07-24T09:53:05.647Z,125.1
2018-07-24T09:54:07.198Z,125.6
2018-07-24T09:55:08.418Z,124.6
2018-07-24T09:56:09.967Z,124.6
2018-07-24T09:57:11.511Z,124.6
2018-07-24T09:58:13.061Z,124.1
2018-07-24T09:59:14.630Z,125.1
2018-07-24T10:00:15.686Z,125.1
2018-07-24T10:01:17.258Z,124.1
2018-07-24T10:02:18.498Z,125.1
2018-07-24T10:03:19.721Z,124.6
2018-07-24T10:04:21.102Z,125.1
2018-07-24T10:05:22.948Z,125.1
2018-07-24T10:06:24.639Z,125.1
2018-07-24T10:07:26.215Z,125.1
2018-07-24T10:08:27.775Z,125.1
2018-07-24T10:09:29.206Z,124.1
2018-07-24T10:10:30.766Z,124.6
2018-07-24T10:11:32.152Z,124.6
2018-07-24T10:12:33.648Z,125.1
2018-07-24T10:13:35.057Z,125.1
2018-07-24T10:14:36.447Z,125.1
2018-07-24T10:15:37.835Z,125.1
2018-07-24T10:16:40.088Z,125.1
2018-07-24T10:17:41.442Z,124.6
2018-07-24T10:18:43.027Z,125.6
2018-07-24T10:19:44.421Z,125.1
2018-07-24T10:20:45.468Z,124.1
2018-07-24T10:21:47.036Z,125.1
2018-07-24T10:22:48.611Z,124.6
2018-07-24T10:23:50.167Z,124.6
2018-07-24T10:24:51.731Z,125.1
2018-07-24T10:25:53.285Z,124.6
2018-07-24T10:26:54.670Z,125.1
2018-07-24T10:27:56.068Z,125.1
2018-07-24T10:28:57.465Z,124.6
2018-07-24T10:29:59.018Z,125.1
2018-07-24T10:31:00.557Z,125.6
2018-07-24T10:32:01.808Z,124.6
2018-07-24T10:33:03.576Z,124.6
2018-07-24T10:34:05.151Z,125.1
2018-07-24T10:35:06.692Z,124.1
2018-07-24T10:36:07.905Z,125.1
2018-07-24T10:37:09.128Z,125.1
2018-07-24T10:38:10.523Z,124.1
2018-07-24T10:39:11.911Z,125.1
2018-07-24T10:40:13.302Z,125.1
2018-07-24T10:41:14.716Z,125.1
2018-07-24T10:42:16.273Z,124.6
2018-07-24T10:43:17.878Z,124.6
2018-07-24T10:44:19.466Z,125.1
2018-07-24T10:45:21.020Z,125.1
2018-07-24T10:46:22.594Z,124.6
2018-07-24T10:47:24.165Z,124.1
2018-07-24T10:48:25.580Z,124.6
2018-07-24T10:49:27.276Z,125.1
2018-07-24T10:50:28.882Z,124.6
2018-07-24T10:51:30.465Z,124.1
2018-07-24T10:52:31.901Z,124.6
2018-07-24T10:53:33.503Z,125.1
2018-07-24T10:54:35.127Z,124.6
2018-07-24T10:55:36.691Z,125.1
2018-07-24T10:56:38.290Z,124.6
2018-07-24T10:57:39.707Z,124.1
2018-07-24T10:58:41.134Z,124.6
2018-07-24T10:59:42.733Z,124.6
2018-07-24T11:00:44.331Z,124.6
2018-07-24T11:01:45.905Z,125.1
2018-07-24T11:02:47.493Z,124.6
2018-07-24T11:03:48.934Z,124.1
2018-07-24T11:04:50.497Z,124.6
2018-07-24T11:05:52.083Z,124.6
2018-07-24T11:06:53.475Z,125.1
2018-07-24T11:07:55.032Z,124.1
2018-07-24T11:08:56.575Z,125.1
2018-07-24T11:09:58.123Z,125.1
2018-07-24T11:10:59.737Z,125.1
2018-07-24T11:12:01.401Z,124.6
2018-07-24T11:13:02.979Z,124.6
2018-07-24T11:14:04.529Z,124.1
2018-07-24T11:15:06.089Z,124.6
2018-07-24T11:16:07.478Z,124.6
2018-07-24T11:17:08.885Z,124.6
2018-07-24T11:18:10.436Z,124.6
2018-07-24T11:19:12.014Z,124.6
2018-07-24T11:20:13.556Z,124.6
2018-07-24T11:21:14.795Z,125.1
2018-07-24T11:22:16.366Z,124.6
2018-07-24T11:23:18.882Z,124.6
2018-07-24T11:24:20.801Z,124.6
2018-07-24T11:25:22.399Z,124.1
2018-07-24T11:26:23.998Z,124.6
2018-07-24T11:27:25.654Z,125.1
2018-07-24T11:28:27.682Z,125.1
2018-07-24T11:29:29.545Z,125.1
2018-07-24T11:30:31.118Z,124.6
2018-07-24T11:31:32.192Z,124.1
2018-07-24T11:32:33.644Z,124.6
2018-07-24T11:33:35.909Z,125.1
2018-07-24T11:34:37.263Z,125.6
2018-07-24T11:35:39.442Z,124.6
2018-07-24T11:36:41.125Z,124.6
2018-07-24T11:37:42.535Z,125.1
2018-07-24T11:38:44.488Z,124.6
2018-07-24T11:39:46.063Z,125.1
2018-07-24T11:40:47.654Z,125.1
2018-07-24T11:41:48.896Z,124.6
2018-07-24T11:42:50.473Z,124.1
2018-07-24T11:43:51.897Z,124.6
2018-07-24T11:44:53.314Z,124.6
2018-07-24T11:45:54.887Z,125.1
2018-07-24T11:46:56.299Z,124.6
2018-07-24T11:47:57.870Z,124.6
2018-07-24T11:48:59.466Z,124.6
2018-07-24T11:50:01.060Z,124.1
2018-07-24T11:51:02.479Z,123.7
2018-07-24T11:52:04.079Z,124.6
2018-07-24T11:53:05.509Z,124.1
2018-07-24T11:54:07.070Z,124.6
2018-07-24T11:55:08.643Z,123.7
2018-07-24T11:56:10.230Z,124.1
2018-07-24T11:57:11.896Z,124.6
2018-07-24T11:58:13.464Z,124.6
2018-07-24T11:59:15.048Z,124.6
2018-07-24T12:00:16.646Z,124.6
2018-07-24T12:01:18.230Z,124.6
2018-07-24T12:02:19.823Z,123.7
2018-07-24T12:03:21.217Z,124.1
2018-07-24T12:04:22.651Z,124.6
2018-07-24T12:05:24.047Z,124.6
2018-07-24T12:06:25.435Z,124.1
2018-07-24T12:07:26.838Z,124.6
2018-07-24T12:08:28.397Z,125.1
2018-07-24T12:09:29.948Z,123.7
2018-07-24T12:10:31.545Z,125.6
2018-07-24T12:11:33.403Z,125.1
2018-07-24T12:12:34.815Z,125.1
2018-07-24T12:13:36.383Z,124.6
2018-07-24T12:14:38.198Z,124.6
2018-07-24T12:15:39.731Z,123.7
2018-07-24T12:16:41.288Z,124.1
2018-07-24T12:17:42.844Z,124.1
2018-07-24T12:18:44.226Z,124.1
2018-07-24T12:19:45.800Z,124.1
2018-07-24T12:20:47.204Z,123.2
2018-07-24T12:21:48.610Z,123.2
2018-07-24T12:22:50.005Z,123.7
2018-07-24T12:23:51.216Z,122.7
2018-07-24T12:24:52.617Z,122.7
2018-07-24T12:25:54.191Z,123.2
2018-07-24T12:26:55.798Z,123.2
2018-07-24T12:27:57.197Z,123.2
2018-07-24T12:28:58.601Z,122.7
2018-07-24T12:30:00.018Z,123.2
2018-07-24T12:31:01.578Z,122.7
2018-07-24T12:32:02.815Z,123.7
2018-07-24T12:33:04.044Z,123.2
2018-07-24T12:34:05.606Z,122.7
2018-07-24T12:35:07.185Z,122.7
2018-07-24T12:36:09.444Z,123.7
2018-07-24T12:37:10.967Z,123.2
2018-07-24T12:38:12.545Z,123.7
2018-07-24T12:39:14.151Z,123.2
2018-07-24T12:40:15.716Z,124.6
2018-07-24T12:41:16.964Z,124.6
2018-07-24T12:42:18.545Z,124.6
2018-07-24T12:43:20.103Z,125.1
2018-07-24T12:44:21.335Z,124.1
2018-07-24T12:45:22.922Z,124.6
2018-07-24T12:46:24.534Z,125.1
2018-07-24T12:47:25.935Z,124.6
2018-07-24T12:48:27.342Z,124.6
2018-07-24T12:49:28.914Z,124.6
2018-07-24T12:50:30.165Z,124.6
2018-07-24T12:51:31.558Z,123.7
2018-07-24T12:52:33.408Z,124.1
2018-07-24T12:53:34.998Z,123.7
2018-07-24T12:54:36.558Z,124.1
2018-07-24T12:55:38.114Z,123.7
2018-07-24T12:56:39.665Z,122.2
2018-07-24T12:57:41.036Z,124.1
2018-07-24T12:58:42.430Z,124.6
2018-07-24T12:59:43.985Z,124.1
2018-07-24T13:00:45.536Z,124.6
2018-07-24T13:01:46.946Z,124.6
2018-07-24T13:02:48.496Z,123.7
2018-07-24T13:03:49.950Z,123.7
2018-07-24T13:04:51.414Z,124.6
2018-07-24T13:05:52.966Z,124.6
2018-07-24T13:06:54.206Z,124.1
2018-07-24T13:07:55.777Z,123.7
2018-07-24T13:08:57.199Z,124.1
2018-07-24T13:09:59.091Z,124.6
2018-07-24T13:11:00.719Z,124.1